My Meet Scores
Layan Ibrahim, Gym Kinetics Gymnastics - MyMeetScores.com
Top100 | Top Teams | Upcoming Meets | Completed Meets | Latest | Add Scores | Help| Support | Bookmark and Share

Layan Ibrahim, Gym Kinetics Gymnastics
Personal Bests
LevelVault BarsBeamFloorAA
39.3759.200 9.3509.52536.900
48.8509.300 9.3759.30036.675
59.3509.125 9.3509.52537.000
79.3509.350 9.4509.45037.250
Meet Scores
Date Meet Team Session Level Division Vault Bars Beam Floor AA
2019-03-29 Illinois Level 7 & 8 State Meet Gym Kinetics Gymnastics 8 7 Sr A 9.150 13 9.350 10 9.250 18T 9.425 10T 37.175 12
2019-03-01 NGCD Academy's 2019 Flip'r Invitational Gym Kinetics Gymnastics 6 7 Sr A 8.950 10T 9.250 3T 9.150 4 9.375 8T 36.725 5T
2019-02-23 Kinetic Classic 2019 Gym Kinetics Gymnastics 1 7 Middle 9.350 1 9.200 4T 9.250 6T 9.450 1T 37.250 3
2019-02-08 Midwest Twisters Harley Meet Womens Gym Kinetics Gymnastics O03 7 12 yrs. 8.850 10 9.125 6 0.000 14 9.175 10 27.150 14
2019-01-18 2019 Bravo Classic Gym Kinetics Gymnastics 9A 7 Jr 9.250 1 9.000 5T 9.300 3T 9.325 10T 36.875 3T
2019-01-11 St Jude Benefit Meet Gym Kinetics Gymnastics 5B 7 Sr A 8.900 2 9.275 8T 8.575 13 9.375 12T 36.125 9
2018-12-14 2018 Aspire Classic Gym Kinetics Gymnastics 10B 7 Middle 8.950 2T 9.100 7 9.450 1 9.150 13 36.650 4
2018-03-08 Level 4 & 5 State Gym Kinetics Gymnastics 11 5 Jr C 9.150 19T 9.050 7 9.350 8 9.450 3T 37.000 5
2018-02-23 Kinetic Classic Gym Kinetics Gymnastics 8 5 Middle 9.350 10 8.800 61T 8.400 75 9.525 4 36.075 36T
2018-02-09 Arizona Sunrays Classic Rock Invitational Gym Kinetics Gymnastics R05 5 SrA 9.300 2 9.125 5 9.275 3T 9.075 3 36.775 2
2018-02-03 Midwest Games Gym Kinetics Gymnastics 7 5 SR 9.125 9 8.775 10T 8.675 17 9.350 6 35.925 11
2018-01-19 2018 Bravo Classic Gym Kinetics Gymnastics 3B 5 Jr 9.275 7T 8.950 15T 9.025 14 9.225 8 36.475 8
2017-12-15 2017 Aspire Classic Gym Kinetics Gymnastics 6A 5 Older 9.000 6T 8.825 6 8.550 9 9.400 4T 35.775 7
2017-03-10 2017 Illinois Level 4 State Championships Gym Kinetics Gymnastics 5 4 Jr B 8.700 19 9.300 7 9.375 9T 9.300 5T 36.675 11
2017-02-24 Kinetic Classic Gym Kinetics Gymnastics 5,6 4 All Ages 8.850 54T 9.175 39T 8.625 107T 9.175 34T 35.825 61
2017-02-09 Hal's Harley-Davidson Invite Gym Kinetics Gymnastics O10 4 10 yrs. 8.675 4 9.200 1 9.250 5T 8.600 11T 35.725 2
2017-01-13 St Jude Benefit Meet Gym Kinetics Gymnastics 4A 4 Jr C 8.800 5 9.050 10 8.800 14 8.800 10 35.450 10
2016-12-16 2016 Aspire Classic Gym Kinetics Gymnastics 7 4 Middle 8.500 14T 8.775 13T 9.175 17 8.850 15 35.300 15
2016-03-04 2016 Illinois Level 3 State Championships Gym Kinetics Gymnastics 3 Junior-D 9.375 9 8.875 13 8.875 9 9.525 5 36.650 9
2016-02-20 Big Classic Gym Kinetics Gymnastics 8B 3 Child C 9.100 11 9.100 8T 9.000 6T 8.875 12 36.075 8
2016-01-15 2016 Bravo Classic Gym Kinetics Gymnastics 3A 3 9+yrs 8.950 15T 8.275 25 9.350 4T 9.000 11T 35.575 19
2015-12-18 2015 Aspire Classic Gym Kinetics Gymnastics 11 3 Older 9.200 12T 9.200 7 9.200 9 9.300 6T 36.900 4
Get your scores on
a t-shirt, pin, or hoodie

www.lazysuits.com